Latest Weather Observations for Hindmarsh Island

IDS60801

Issued at 4:21 pm CST Tuesday 20 April 2021 (issued every 10 minutes, with the page automatically refreshed every 10 minutes)

About weather observations | Map of weather stations | Latest weather observations for SA | Other Formats
Station Details ID: 023894 Name: HINDMARSH ISLAND AWS Lat: -35.52 Lon: 138.82 Height: 11.0 m
Data from the previous 72 hours. | See also: Recent months at Hindmarsh Island
Date/Time
CST
Temp
°C
App
Temp
°C
Dew
Point
°C
Rel
Hum
%
Delta-T
°C
Wind Press
QNH
hPa
Press
MSL
hPa
Rain since
9am
mm
Dir  Spd
km/h
Gust
km/h
Spd
kts
Gust
kts
20/04:00pm 15.2 9.1 6.5 56 4.2 S 28 35 15 19 1017.4 1017.4 0.2
20/03:30pm 15.6 8.7 7.1 57 4.2 S 33 39 18 21 1017.1 1017.1 0.2
20/03:00pm 15.6 8.4 7.6 59 4.0 S 35 44 19 24 1016.9 1016.9 0.2
20/02:30pm 15.4 7.7 7.2 58 4.0 S 37 43 20 23 1016.4 1016.4 0.2
20/02:00pm 16.3 8.4 8.0 58 4.2 S 39 48 21 26 1016.3 1016.3 0.2
20/01:30pm 15.7 7.8 7.7 59 4.0 S 39 46 21 25 1016.2 1016.2 0.2
20/01:00pm 15.9 7.8 6.9 55 4.4 SSW 39 46 21 25 1016.2 1016.2 0.2
20/12:30pm 15.5 7.3 8.3 62 3.6 SSW 41 48 22 26 1016.2 1016.2 0.2
20/12:00pm 14.8 6.8 9.0 68 3.0 SSW 41 54 22 29 1016.4 1016.4 0.2
20/11:30am 14.9 8.0 10.3 74 2.4 S 37 48 20 26 1016.2 1016.2 0.2
20/11:00am 13.5 5.1 10.9 84 1.4 S 46 57 25 31 1016.2 1016.2 0.2
20/10:50am 14.0 8.4 11.5 85 1.3 S 32 50 17 27 1016.0 1016.0 0.2
20/10:30am 13.2 5.6 11.9 92 0.7 S 43 52 23 28 1015.8 1015.8 0.0
20/10:00am 13.9 6.9 11.1 83 1.5 S 39 46 21 25 1015.3 1015.3 0.0
20/09:30am 13.7 5.5 11.6 87 1.1 S 46 57 25 31 1014.8 1014.8 0.0
20/09:00am 14.3 5.8 12.0 86 1.2 S 48 59 26 32 1013.9 1013.9 5.6
20/08:30am 14.4 5.4 12.8 90 0.9 S 52 61 28 33 1013.1 1013.1 5.6
20/08:07am 14.6 9.5 13.6 94 0.6 SW 33 54 18 29 1012.6 1012.6 4.8
20/08:03am 14.6 10.4 13.5 93 0.6 WSW 28 48 15 26 1013.0 1013.0 4.0
20/08:00am 14.7 10.4 13.1 90 0.9 W 28 48 15 26 1013.0 1013.0 3.0
20/07:58am 15.2 11.4 12.3 83 1.6 W 24 48 13 26 1012.9 1012.9 0.8
20/07:30am 16.6 13.0 10.5 67 3.2 NW 20 28 11 15 1012.2 1012.2 0.0
20/07:00am 15.7 12.2 10.9 73 2.6 NW 20 28 11 15 1011.9 1011.9 0.0
20/06:30am 14.4 12.5 11.9 85 1.3 NW 13 20 7 11 1011.9 1011.9 0.0
20/06:00am 11.0 9.5 9.1 88 0.9 NE 7 11 4 6 1012.0 1012.0 0.0
20/05:30am 11.3 10.1 9.4 88 1.0 NE 6 7 3 4 1012.2 1012.2 0.0
20/05:00am 11.3 9.4 9.2 87 1.0 NNE 9 11 5 6 1012.0 1012.0 0.0
20/04:30am 12.4 10.2 9.4 82 1.5 N 11 15 6 8 1012.1 1012.1 0.0
20/04:00am 11.9 9.4 9.8 87 1.1 N 13 15 7 8 1012.3 1012.3 0.0
20/03:30am 11.3 8.8 9.6 89 0.9 N 13 19 7 10 1012.3 1012.3 0.0
20/03:00am 11.2 8.2 9.3 88 1.0 N 15 19 8 10 1012.5 1012.5 0.0
20/02:30am 11.8 8.9 9.7 87 1.1 N 15 19 8 10 1012.7 1012.7 0.0
20/02:00am 12.8 10.0 10.0 83 1.4 N 15 20 8 11 1012.9 1012.9 0.0
20/01:30am 12.5 9.7 10.0 85 1.3 N 15 17 8 9 1013.1 1013.1 0.0
20/01:00am 13.1 10.7 10.1 82 1.5 N 13 15 7 8 1013.4 1013.4 0.0
20/12:30am 12.9 11.6 10.1 83 1.4 N 7 9 4 5 1013.8 1013.8 0.0
20/12:00am 13.0 11.7 9.8 81 1.6 N 7 9 4 5 1014.0 1014.0 0.0
 
Date/Time
CST
Temp
°C
App
Temp
°C
Dew
Point
°C
Rel
Hum
%
Delta-T
°C
Wind Press
QNH
hPa
Press
MSL
hPa
Rain since
9am
mm
Dir  Spd
km/h
Gust
km/h
Spd
kts
Gust
kts
19/11:30pm 13.2 11.0 9.5 78 1.9 N 11 13 6 7 1014.1 1014.1 0.0
19/11:00pm 14.1 11.5 9.3 73 2.5 NNW 13 15 7 8 1014.6 1014.6 0.0
19/10:30pm 13.8 11.2 9.3 74 2.3 N 13 15 7 8 1014.6 1014.6 0.0
19/10:00pm 14.3 12.1 9.3 72 2.6 N 11 17 6 9 1014.8 1014.8 0.0
19/09:30pm 15.1 13.7 9.7 70 2.8 NNW 7 9 4 5 1014.8 1014.8 0.0
19/09:00pm 16.1 14.0 9.8 66 3.3 NNW 11 13 6 7 1015.0 1015.0 0.0
19/08:30pm 16.8 15.7 10.6 67 3.3 WNW 7 11 4 6 1015.1 1015.1 0.0
19/08:00pm 17.2 15.4 9.6 61 4.0 W 9 11 5 6 1014.9 1014.9 0.0
19/07:30pm 17.9 14.8 9.0 56 4.6 NW 15 20 8 11 1015.0 1015.0 0.0
19/07:00pm 18.2 14.5 9.3 56 4.7 NNW 19 26 10 14 1015.2 1015.2 0.0
19/06:30pm 18.2 14.7 8.7 54 4.9 NW 17 20 9 11 1015.2 1015.2 0.0
19/06:00pm 18.4 14.2 8.4 52 5.2 WNW 20 26 11 14 1014.9 1014.9 0.0
19/05:30pm 18.6 14.5 8.6 52 5.2 WNW 20 28 11 15 1014.8 1014.8 0.0
19/05:00pm 18.8 14.3 8.7 52 5.3 WNW 22 30 12 16 1014.7 1014.7 0.0
19/04:30pm 19.0 14.1 8.4 50 5.5 WNW 24 35 13 19 1014.8 1014.8 0.0
19/04:00pm 19.3 14.1 8.9 51 5.4 WNW 26 43 14 23 1014.8 1014.8 0.0
19/03:30pm 19.8 15.7 8.5 48 5.9 WNW 20 30 11 16 1015.0 1015.0 0.0
19/03:00pm 20.4 15.2 9.0 48 6.0 NW 26 35 14 19 1014.9 1014.9 0.0
19/02:30pm 19.6 14.3 8.6 49 5.7 NW 26 35 14 19 1015.1 1015.1 0.0
19/02:00pm 19.5 14.6 10.0 54 5.1 NW 26 33 14 18 1015.2 1015.2 0.0
19/01:30pm 20.1 15.4 9.4 50 5.7 NW 24 39 13 21 1015.6 1015.6 0.0
19/01:00pm 19.1 14.6 10.1 56 4.8 NW 24 35 13 19 1016.2 1016.2 0.0
19/12:30pm 19.7 14.2 9.3 51 5.5 WNW 28 41 15 22 1016.7 1016.7 0.0
19/12:00pm 20.3 16.0 9.5 50 5.7 NW 22 35 12 19 1017.2 1017.2 0.0
19/11:30am 18.1 15.1 10.7 62 4.0 NW 17 24 9 13 1017.8 1017.8 0.0
19/11:00am 17.8 14.9 10.9 64 3.7 NW 17 24 9 13 1018.2 1018.2 0.0
19/10:30am 17.7 13.8 10.8 64 3.7 NW 22 33 12 18 1018.4 1018.4 0.0
19/10:00am 17.6 14.1 10.9 65 3.6 NW 20 32 11 17 1018.7 1018.7 0.0
19/09:30am 17.3 13.7 10.7 65 3.5 NW 20 30 11 16 1018.7 1018.7 0.0
19/09:00am 16.3 13.5 11.2 72 2.7 NNW 17 24 9 13 1018.8 1018.8 0.0
19/08:30am 15.7 12.9 11.5 76 2.3 NNW 17 24 9 13 1019.1 1019.1 0.0
19/08:00am 15.7 12.5 11.3 75 2.4 NNW 19 24 10 13 1018.9 1018.9 0.0
19/07:30am 15.2 12.5 11.6 79 1.9 NNW 17 20 9 11 1018.6 1018.6 0.0
19/07:00am 15.0 12.2 11.4 79 1.9 NNW 17 22 9 12 1018.6 1018.6 0.0
19/06:30am 14.9 15.2 10.9 77 2.1 CALM 0 6 0 3 1018.6 1018.6 0.0
19/06:00am 14.6 12.8 10.8 78 2.0 NNW 11 13 6 7 1018.7 1018.7 0.0
19/05:30am 14.4 13.2 11.6 83 1.5 N 9 11 5 6 1018.8 1018.8 0.0
19/05:00am 14.6 13.4 11.7 83 1.6 N 9 11 5 6 1019.0 1019.0 0.0
19/04:30am 14.8 13.6 11.6 81 1.7 NNW 9 13 5 7 1019.0 1019.0 0.0
19/04:00am 14.7 13.1 11.5 81 1.7 NNW 11 15 6 8 1019.1 1019.1 0.0
19/03:30am 14.8 13.8 11.0 78 2.0 NNW 7 9 4 5 1019.0 1019.0 0.0
19/03:00am 15.0 14.1 11.2 78 2.0 N 7 9 4 5 1019.1 1019.1 0.0
19/02:30am 15.2 13.7 10.6 74 2.4 NNW 9 11 5 6 1019.5 1019.5 0.0
19/02:00am 15.9 13.9 11.5 75 2.4 W 13 15 7 8 1020.0 1020.0 0.0
19/01:30am 15.9 14.8 12.1 78 2.1 W 9 13 5 7 1020.2 1020.2 0.0
19/01:00am 15.6 14.0 11.4 76 2.3 W 11 13 6 7 1020.7 1020.7 0.0
19/12:30am 15.6 14.2 11.0 74 2.4 NW 9 11 5 6 1020.9 1020.9 0.0
19/12:00am 15.7 14.4 11.1 74 2.5 NW 9 11 5 6 1021.1 1021.1 0.0
 
Date/Time
CST
Temp
°C
App
Temp
°C
Dew
Point
°C
Rel
Hum
%
Delta-T
°C
Wind Press
QNH
hPa
Press
MSL
hPa
Rain since
9am
mm
Dir  Spd
km/h
Gust
km/h
Spd
kts
Gust
kts
18/11:30pm 15.9 14.3 11.5 75 2.4 WNW 11 13 6 7 1021.4 1021.4 0.0
18/11:00pm 15.8 14.7 11.8 77 2.2 W 9 11 5 6 1021.6 1021.6 0.0
18/10:30pm 15.5 14.3 11.5 77 2.1 NW 9 11 5 6 1021.9 1021.9 0.0
18/10:00pm 15.5 14.4 11.9 79 2.0 WNW 9 11 5 6 1022.0 1022.0 0.0
18/09:30pm 15.7 14.6 11.9 78 2.1 NW 9 11 5 6 1022.1 1022.1 0.0
18/09:00pm 15.9 14.7 11.7 76 2.3 NNW 9 13 5 7 1022.2 1022.2 0.0
18/08:30pm 16.1 14.5 11.7 75 2.4 WNW 11 13 6 7 1022.1 1022.1 0.0
18/08:00pm 16.5 14.9 11.6 73 2.7 WNW 11 17 6 9 1022.4 1022.4 0.0
18/07:30pm 16.4 13.2 12.0 75 2.4 SW 20 28 11 15 1022.6 1022.6 0.0
18/07:00pm 16.4 11.9 12.6 78 2.1 SW 28 32 15 17 1022.9 1022.9 0.0
18/06:30pm 16.5 13.5 12.7 78 2.1 SW 20 28 11 15 1022.6 1022.6 0.0
18/06:00pm 16.5 13.7 12.5 77 2.2 SSW 19 26 10 14 1022.5 1022.5 0.0
18/05:30pm 16.6 12.9 12.6 77 2.2 SSW 24 32 13 17 1022.6 1022.6 0.0
18/05:00pm 17.2 14.1 12.3 73 2.7 SW 20 26 11 14 1022.6 1022.6 0.0
18/04:30pm 17.1 14.0 12.2 73 2.7 SSW 20 26 11 14 1022.5 1022.5 0.0
18/04:00pm 17.5 13.2 12.2 71 2.9 SSW 26 30 14 16 1022.5 1022.5 0.0
18/03:30pm 18.4 14.6 11.0 62 4.0 SSW 22 28 12 15 1022.5 1022.5 0.0
18/03:00pm 18.5 14.4 8.7 53 5.1 SSW 20 24 11 13 1022.5 1022.5 0.0
18/02:30pm 18.9 15.2 8.0 49 5.6 SSW 17 20 9 11 1022.6 1022.6 0.0
18/02:00pm 18.7 14.9 8.9 53 5.1 SSW 19 22 10 12 1022.8 1022.8 0.0
18/01:30pm 19.5 15.4 8.8 50 5.6 SSW 20 24 11 13 1023.1 1023.1 0.0
18/01:00pm 19.9 16.3 9.8 52 5.4 SSW 19 24 10 13 1023.5 1023.5 0.0
18/12:30pm 20.1 16.8 9.4 50 5.7 SSW 17 19 9 10 1023.9 1023.9 0.0
18/12:00pm 19.6 15.8 9.2 51 5.5 SSW 19 24 10 13 1024.4 1024.4 0.0
18/11:30am 19.8 16.6 10.0 53 5.2 SSW 17 20 9 11 1024.8 1024.8 0.0
18/11:00am 18.7 16.4 10.3 58 4.5 SSW 13 17 7 9 1024.9 1024.9 0.0
18/10:30am 18.8 16.5 10.4 58 4.5 SW 13 19 7 10 1025.2 1025.2 0.0
18/10:00am 18.1 16.4 11.2 64 3.7 W 11 15 6 8 1025.6 1025.6 0.0
18/09:30am 18.2 16.5 12.4 69 3.2 W 13 17 7 9 1025.8 1025.8 0.0
18/09:00am 17.1 15.4 12.6 75 2.5 WSW 13 19 7 10 1025.8 1025.8 0.0
18/08:30am 16.1 14.3 12.1 77 2.2 WSW 13 19 7 10 1025.9 1025.9 0.0
18/08:00am 15.5 13.8 11.3 76 2.3 W 11 15 6 8 1025.9 1025.9 0.0
18/07:30am 14.6 14.0 11.6 82 1.6 W 6 11 3 6 1025.6 1025.6 0.0
18/07:00am 12.9 11.3 10.1 83 1.4 WNW 9 11 5 6 1025.4 1025.4 0.0
18/06:30am 13.0 11.0 10.0 82 1.5 WNW 11 13 6 7 1025.4 1025.4 0.0
18/06:00am 13.5 12.0 10.7 83 1.5 NW 9 11 5 6 1025.4 1025.4 0.0
18/05:30am 14.0 12.2 10.8 81 1.7 NW 11 13 6 7 1025.3 1025.3 0.0
18/05:00am 14.4 14.2 11.7 84 1.4 NW 4 7 2 4 1025.4 1025.4 0.0
18/04:30am 14.4 11.7 11.6 83 1.5 WSW 17 20 9 11 1025.4 1025.4 0.0
18/04:00am 14.4 12.9 11.9 85 1.3 WNW 11 15 6 8 1025.2 1025.2 0.0
18/03:30am 14.5 12.4 11.3 81 1.7 WNW 13 17 7 9 1025.3 1025.3 0.0
18/03:00am 14.4 12.1 10.6 78 2.0 W 13 20 7 11 1025.6 1025.6 0.0
18/02:30am 14.9 12.1 11.3 79 1.9 W 17 22 9 12 1025.6 1025.6 0.0
18/02:00am 14.6 13.8 11.2 80 1.8 NNE 6 15 3 8 1025.8 1025.8 0.0
18/01:30am 14.4 13.6 11.6 83 1.5 ENE 7 9 4 5 1026.1 1026.1 0.0
18/01:00am 14.7 13.8 11.3 80 1.8 NW 7 9 4 5 1026.1 1026.1 0.0
18/12:30am 14.4 12.4 11.4 82 1.6 WNW 13 15 7 8 1026.1 1026.1 0.0
18/12:00am 14.4 12.6 10.8 79 1.9 WNW 11 13 6 7 1026.2 1026.2 0.0
 
Date/Time
CST
Temp
°C
App
Temp
°C
Dew
Point
°C
Rel
Hum
%
Delta-T
°C
Wind Press
QNH
hPa
Press
MSL
hPa
Rain since
9am
mm
Dir  Spd
km/h
Gust
km/h
Spd
kts
Gust
kts
17/11:30pm 14.6 12.7 10.4 76 2.2 WNW 11 13 6 7 1026.4 1026.4 0.0
17/11:00pm 15.0 13.5 10.6 75 2.3 W 9 11 5 6 1026.8 1026.8 0.0
17/10:30pm 15.3 15.6 12.2 82 1.7 SSW 2 7 1 4 1027.1 1027.1 0.0
17/10:00pm 15.5 13.7 10.9 74 2.4 WSW 11 17 6 9 1027.2 1027.2 0.0
17/09:30pm 15.6 13.1 9.7 68 3.0 W 13 17 7 9 1027.2 1027.2 0.0
17/09:00pm 15.3 12.7 9.4 68 3.0 W 13 17 7 9 1027.1 1027.1 0.0
17/08:30pm 15.1 12.9 9.5 69 2.9 WNW 11 15 6 8 1026.9 1026.9 0.0
17/08:00pm 15.5 13.0 9.6 68 3.1 WNW 13 19 7 10 1027.1 1027.1 0.0
17/07:30pm 16.0 13.5 9.7 66 3.3 W 13 17 7 9 1027.2 1027.2 0.0
17/07:00pm 16.1 13.8 9.1 63 3.6 WNW 11 15 6 8 1027.1 1027.1 0.0
17/06:30pm 16.8 14.1 9.0 60 4.0 W 13 17 7 9 1027.0 1027.0 0.0
17/06:00pm 17.0 13.9 8.7 58 4.2 W 15 20 8 11 1026.8 1026.8 0.0
17/05:30pm 16.9 13.6 9.6 62 3.8 WSW 17 22 9 12 1026.7 1026.7 0.0
17/05:00pm 16.9 13.7 9.8 63 3.7 SW 17 20 9 11 1026.6 1026.6 0.0
17/04:30pm 17.1 13.1 9.0 59 4.2 SW 20 28 11 15 1026.5 1026.5 0.0

Other formats

Comma delimited format used in spreadsheet applications
http://www.bom.gov.au/fwo/IDS60801/IDS60801.94677.axf

JavaScript Object Notation format (JSON) in row-major order
http://www.bom.gov.au/fwo/IDS60801/IDS60801.94677.json

Data quality

Most of these data are generated automatically and are frequently updated. Quality checks on data are not normally performed. It is possible for incorrect values to appear. Refer to information at About Latest Weather Observations and please check the disclaimer before using these data.